sensor_id;sensor_type;location;lat;lon;timestamp;pressure;altitude;pressure_sealevel;temperature;humidity
15634;BME280;14654;48.898;8.308;2024-02-21T00:00:47;101352.63;;;7.87;100.00
15634;BME280;14654;48.898;8.308;2024-02-21T00:03:13;101355.19;;;7.86;100.00
15634;BME280;14654;48.898;8.308;2024-02-21T00:05:38;101343.91;;;7.82;100.00
15634;BME280;14654;48.898;8.308;2024-02-21T00:08:04;101348.25;;;7.83;100.00
15634;BME280;14654;48.898;8.308;2024-02-21T00:10:29;101346.56;;;7.85;100.00
15634;BME280;14654;48.898;8.308;2024-02-21T00:12:57;101337.16;;;7.87;100.00
15634;BME280;14654;48.898;8.308;2024-02-21T00:15:22;101338.91;;;7.88;100.00
15634;BME280;14654;48.898;8.308;2024-02-21T00:17:47;101334.66;;;7.92;100.00
15634;BME280;14654;48.898;8.308;2024-02-21T00:20:13;101330.41;;;7.94;100.00
15634;BME280;14654;48.898;8.308;2024-02-21T00:22:39;101323.56;;;7.96;100.00
15634;BME280;14654;48.898;8.308;2024-02-21T00:25:04;101324.44;;;7.97;100.00
15634;BME280;14654;48.898;8.308;2024-02-21T00:27:30;101317.59;;;7.97;100.00
15634;BME280;14654;48.898;8.308;2024-02-21T00:29:56;101317.53;;;7.96;100.00
15634;BME280;14654;48.898;8.308;2024-02-21T00:32:21;101318.38;;;7.94;100.00
15634;BME280;14654;48.898;8.308;2024-02-21T00:34:46;101306.34;;;7.93;100.00
15634;BME280;14654;48.898;8.308;2024-02-21T00:37:12;101304.63;;;7.92;100.00
15634;BME280;14654;48.898;8.308;2024-02-21T00:39:37;101302.06;;;7.96;100.00
15634;BME280;14654;48.898;8.308;2024-02-21T00:42:02;101301.19;;;7.93;100.00
15634;BME280;14654;48.898;8.308;2024-02-21T00:44:28;101292.59;;;7.93;100.00
15634;BME280;14654;48.898;8.308;2024-02-21T00:46:53;101290.78;;;7.89;100.00
15634;BME280;14654;48.898;8.308;2024-02-21T00:49:19;101288.25;;;7.92;100.00
15634;BME280;14654;48.898;8.308;2024-02-21T00:51:44;101286.56;;;7.92;100.00
15634;BME280;14654;48.898;8.308;2024-02-21T00:54:09;101283.16;;;7.95;100.00
15634;BME280;14654;48.898;8.308;2024-02-21T00:56:35;101281.56;;;8.00;100.00
15634;BME280;14654;48.898;8.308;2024-02-21T00:59:00;101277.31;;;8.04;100.00
15634;BME280;14654;48.898;8.308;2024-02-21T01:01:25;101270.50;;;8.07;100.00
15634;BME280;14654;48.898;8.308;2024-02-21T01:03:51;101270.56;;;8.11;100.00
15634;BME280;14654;48.898;8.308;2024-02-21T01:06:19;101267.16;;;8.13;100.00
15634;BME280;14654;48.898;8.308;2024-02-21T01:08:44;101268.06;;;8.17;100.00
15634;BME280;14654;48.898;8.308;2024-02-21T01:11:09;101257.84;;;8.21;100.00
15634;BME280;14654;48.898;8.308;2024-02-21T01:13:36;101254.44;;;8.24;100.00
15634;BME280;14654;48.898;8.308;2024-02-21T01:16:01;101250.13;;;8.23;100.00
15634;BME280;14654;48.898;8.308;2024-02-21T01:18:26;101239.81;;;8.24;100.00
15634;BME280;14654;48.898;8.308;2024-02-21T01:20:52;101241.53;;;8.24;100.00
15634;BME280;14654;48.898;8.308;2024-02-21T01:23:17;101242.41;;;8.24;100.00
15634;BME280;14654;48.898;8.308;2024-02-21T01:25:42;101233.81;;;8.26;100.00
15634;BME280;14654;48.898;8.308;2024-02-21T01:28:08;101223.50;;;8.26;100.00
15634;BME280;14654;48.898;8.308;2024-02-21T01:30:33;101203.75;;;8.26;100.00
15634;BME280;14654;48.898;8.308;2024-02-21T01:32:58;101201.97;;;8.22;100.00
15634;BME280;14654;48.898;8.308;2024-02-21T01:35:23;101203.63;;;8.18;100.00
15634;BME280;14654;48.898;8.308;2024-02-21T01:37:49;101201.00;;;8.17;100.00
15634;BME280;14654;48.898;8.308;2024-02-21T01:40:14;101189.84;;;8.16;100.00
15634;BME280;14654;48.898;8.308;2024-02-21T01:42:40;101180.38;;;8.17;100.00
15634;BME280;14654;48.898;8.308;2024-02-21T01:45:08;101173.53;;;8.16;100.00
15634;BME280;14654;48.898;8.308;2024-02-21T01:47:34;101170.06;;;8.15;100.00
15634;BME280;14654;48.898;8.308;2024-02-21T01:50:01;101172.63;;;8.14;100.00
15634;BME280;14654;48.898;8.308;2024-02-21T01:52:28;101180.31;;;8.12;100.00
15634;BME280;14654;48.898;8.308;2024-02-21T01:54:54;101187.22;;;8.12;100.00
15634;BME280;14654;48.898;8.308;2024-02-21T01:57:20;101190.63;;;8.12;100.00
15634;BME280;14654;48.898;8.308;2024-02-21T01:59:45;101189.75;;;8.10;100.00
15634;BME280;14654;48.898;8.308;2024-02-21T02:02:11;101176.00;;;8.09;100.00
15634;BME280;14654;48.898;8.308;2024-02-21T02:04:38;101174.25;;;8.07;100.00
15634;BME280;14654;48.898;8.308;2024-02-21T02:07:06;101177.63;;;8.04;100.00
15634;BME280;14654;48.898;8.308;2024-02-21T02:09:31;101178.44;;;8.00;100.00
15634;BME280;14654;48.898;8.308;2024-02-21T02:11:57;101181.84;;;7.99;100.00
15634;BME280;14654;48.898;8.308;2024-02-21T02:14:23;101169.81;;;7.98;100.00
15634;BME280;14654;48.898;8.308;2024-02-21T02:16:48;101177.50;;;7.95;100.00
15634;BME280;14654;48.898;8.308;2024-02-21T02:19:14;101174.03;;;7.94;100.00
15634;BME280;14654;48.898;8.308;2024-02-21T02:21:43;101180.91;;;7.92;100.00
15634;BME280;14654;48.898;8.308;2024-02-21T02:24:11;101170.53;;;7.91;100.00
15634;BME280;14654;48.898;8.308;2024-02-21T02:26:37;101166.22;;;7.90;100.00
15634;BME280;14654;48.898;8.308;2024-02-21T02:29:02;101167.06;;;7.87;100.00
15634;BME280;14654;48.898;8.308;2024-02-21T02:31:27;101169.63;;;7.87;100.00
15634;BME280;14654;48.898;8.308;2024-02-21T02:33:53;101179.03;;;7.85;100.00
15634;BME280;14654;48.898;8.308;2024-02-21T02:36:18;101163.56;;;7.84;100.00
15634;BME280;14654;48.898;8.308;2024-02-21T02:38:43;101148.06;;;7.82;100.00
15634;BME280;14654;48.898;8.308;2024-02-21T02:41:09;101145.50;;;7.82;100.00
15634;BME280;14654;48.898;8.308;2024-02-21T02:43:34;101132.53;;;7.77;100.00
15634;BME280;14654;48.898;8.308;2024-02-21T02:45:59;101127.31;;;7.73;100.00
15634;BME280;14654;48.898;8.308;2024-02-21T02:48:25;101140.19;;;7.71;100.00
15634;BME280;14654;48.898;8.308;2024-02-21T02:50:50;101146.13;;;7.69;100.00
15634;BME280;14654;48.898;8.308;2024-02-21T02:53:15;101133.25;;;7.69;100.00
15634;BME280;14654;48.898;8.308;2024-02-21T02:55:41;101135.81;;;7.67;100.00
15634;BME280;14654;48.898;8.308;2024-02-21T02:58:06;101116.06;;;7.68;100.00
15634;BME280;14654;48.898;8.308;2024-02-21T03:00:31;101117.78;;;7.67;100.00
15634;BME280;14654;48.898;8.308;2024-02-21T03:03:01;101116.81;;;7.62;100.00
15634;BME280;14654;48.898;8.308;2024-02-21T03:05:27;101124.47;;;7.56;100.00
15634;BME280;14654;48.898;8.308;2024-02-21T03:07:52;101114.06;;;7.51;100.00
15634;BME280;14654;48.898;8.308;2024-02-21T03:10:18;101107.16;;;7.48;100.00
15634;BME280;14654;48.898;8.308;2024-02-21T03:12:43;101100.28;;;7.47;100.00
15634;BME280;14654;48.898;8.308;2024-02-21T03:15:09;101086.47;;;7.44;100.00
15634;BME280;14654;48.898;8.308;2024-02-21T03:17:34;101076.13;;;7.41;100.00
15634;BME280;14654;48.898;8.308;2024-02-21T03:20:03;101078.63;;;7.38;100.00
15634;BME280;14654;48.898;8.308;2024-02-21T03:22:35;101088.88;;;7.35;100.00
15634;BME280;14654;48.898;8.308;2024-02-21T03:25:00;101089.72;;;7.32;100.00
15634;BME280;14654;48.898;8.308;2024-02-21T03:27:26;101087.88;;;7.25;100.00
15634;BME280;14654;48.898;8.308;2024-02-21T03:29:51;101070.59;;;7.19;100.00
15634;BME280;14654;48.898;8.308;2024-02-21T03:32:17;101065.44;;;7.17;100.00
15634;BME280;14654;48.898;8.308;2024-02-21T03:34:42;101061.91;;;7.12;100.00
15634;BME280;14654;48.898;8.308;2024-02-21T03:37:07;101060.09;;;7.07;100.00
15634;BME280;14654;48.898;8.308;2024-02-21T03:39:32;101060.91;;;7.04;100.00
15634;BME280;14654;48.898;8.308;2024-02-21T03:41:58;101055.75;;;7.03;100.00
15634;BME280;14654;48.898;8.308;2024-02-21T03:44:26;101054.84;;;7.00;100.00
15634;BME280;14654;48.898;8.308;2024-02-21T03:46:52;101059.94;;;6.97;100.00
15634;BME280;14654;48.898;8.308;2024-02-21T03:49:17;101051.31;;;6.95;100.00
15634;BME280;14654;48.898;8.308;2024-02-21T03:51:43;101046.94;;;6.91;100.00
15634;BME280;14654;48.898;8.308;2024-02-21T03:54:08;101052.06;;;6.88;100.00
15634;BME280;14654;48.898;8.308;2024-02-21T03:56:37;101054.50;;;6.82;100.00
15634;BME280;14654;48.898;8.308;2024-02-21T03:59:02;101056.09;;;6.77;100.00
15634;BME280;14654;48.898;8.308;2024-02-21T04:01:27;101062.88;;;6.71;100.00
15634;BME280;14654;48.898;8.308;2024-02-21T04:03:53;101069.63;;;6.66;100.00
15634;BME280;14654;48.898;8.308;2024-02-21T04:06:18;101060.09;;;6.61;100.00
15634;BME280;14654;48.898;8.308;2024-02-21T04:08:44;101067.69;;;6.54;100.00
15634;BME280;14654;48.898;8.308;2024-02-21T04:11:10;101070.16;;;6.50;100.00
15634;BME280;14654;48.898;8.308;2024-02-21T04:13:35;101078.63;;;6.46;100.00
15634;BME280;14654;48.898;8.308;2024-02-21T04:16:00;101074.25;;;6.40;100.00
15634;BME280;14654;48.898;8.308;2024-02-21T04:18:26;101071.59;;;6.35;100.00
15634;BME280;14654;48.898;8.308;2024-02-21T04:20:51;101076.63;;;6.31;100.00
15634;BME280;14654;48.898;8.308;2024-02-21T04:23:17;101072.25;;;6.27;100.00
15634;BME280;14654;48.898;8.308;2024-02-21T04:25:42;101064.44;;;6.22;100.00
15634;BME280;14654;48.898;8.308;2024-02-21T04:28:07;101057.47;;;6.16;100.00
15634;BME280;14654;48.898;8.308;2024-02-21T04:30:32;101062.53;;;6.13;100.00
15634;BME280;14654;48.898;8.308;2024-02-21T04:32:58;101065.03;;;6.10;100.00
15634;BME280;14654;48.898;8.308;2024-02-21T04:35:23;101059.81;;;6.05;100.00
15634;BME280;14654;48.898;8.308;2024-02-21T04:37:49;101065.69;;;6.01;100.00
15634;BME280;14654;48.898;8.308;2024-02-21T04:40:14;101051.03;;;5.97;100.00
15634;BME280;14654;48.898;8.308;2024-02-21T04:42:41;101054.38;;;5.93;100.00
15634;BME280;14654;48.898;8.308;2024-02-21T04:45:07;101040.59;;;5.89;100.00
15634;BME280;14654;48.898;8.308;2024-02-21T04:47:32;101050.78;;;5.86;100.00
15634;BME280;14654;48.898;8.308;2024-02-21T04:49:58;101051.56;;;5.84;100.00
15634;BME280;14654;48.898;8.308;2024-02-21T04:52:23;101044.69;;;5.83;100.00
15634;BME280;14654;48.898;8.308;2024-02-21T04:54:48;101035.22;;;5.80;100.00
15634;BME280;14654;48.898;8.308;2024-02-21T04:57:14;101042.91;;;5.78;100.00
15634;BME280;14654;48.898;8.308;2024-02-21T04:59:44;101026.59;;;5.76;100.00
15634;BME280;14654;48.898;8.308;2024-02-21T05:02:10;101021.41;;;5.75;100.00
15634;BME280;14654;48.898;8.308;2024-02-21T05:04:36;101012.78;;;5.71;100.00
15634;BME280;14654;48.898;8.308;2024-02-21T05:07:03;101001.59;;;5.69;100.00
15634;BME280;14654;48.898;8.308;2024-02-21T05:09:29;100998.97;;;5.66;100.00
15634;BME280;14654;48.898;8.308;2024-02-21T05:11:54;100996.34;;;5.64;100.00
15634;BME280;14654;48.898;8.308;2024-02-21T05:14:19;100987.72;;;5.61;100.00
15634;BME280;14654;48.898;8.308;2024-02-21T05:16:45;100979.13;;;5.60;100.00
15634;BME280;14654;48.898;8.308;2024-02-21T05:19:10;100984.25;;;5.59;100.00
15634;BME280;14654;48.898;8.308;2024-02-21T05:21:35;100982.50;;;5.56;100.00
15634;BME280;14654;48.898;8.308;2024-02-21T05:24:01;100985.88;;;5.55;100.00
15634;BME280;14654;48.898;8.308;2024-02-21T05:26:27;100972.97;;;5.52;100.00
15634;BME280;14654;48.898;8.308;2024-02-21T05:28:53;100975.53;;;5.51;100.00
15634;BME280;14654;48.898;8.308;2024-02-21T05:31:19;100976.34;;;5.49;100.00
15634;BME280;14654;48.898;8.308;2024-02-21T05:33:45;100976.28;;;5.48;100.00
15634;BME280;14654;48.898;8.308;2024-02-21T05:36:11;100980.50;;;5.44;100.00
15634;BME280;14654;48.898;8.308;2024-02-21T05:38:36;100980.41;;;5.41;100.00
15634;BME280;14654;48.898;8.308;2024-02-21T05:41:02;100982.97;;;5.40;100.00
15634;BME280;14654;48.898;8.308;2024-02-21T05:43:27;100977.75;;;5.37;100.00
15634;BME280;14654;48.898;8.308;2024-02-21T05:45:53;100976.91;;;5.36;100.00
15634;BME280;14654;48.898;8.308;2024-02-21T05:48:18;100974.25;;;5.33;100.00
15634;BME280;14654;48.898;8.308;2024-02-21T05:50:43;100972.47;;;5.30;100.00
15634;BME280;14654;48.898;8.308;2024-02-21T05:53:09;100970.75;;;5.29;100.00
15634;BME280;14654;48.898;8.308;2024-02-21T05:55:35;100966.44;;;5.28;100.00
15634;BME280;14654;48.898;8.308;2024-02-21T05:58:00;100965.53;;;5.26;100.00
15634;BME280;14654;48.898;8.308;2024-02-21T06:00:27;100968.88;;;5.24;100.00
15634;BME280;14654;48.898;8.308;2024-02-21T06:02:52;100964.59;;;5.23;100.00
15634;BME280;14654;48.898;8.308;2024-02-21T06:05:18;100963.69;;;5.21;100.00
15634;BME280;14654;48.898;8.308;2024-02-21T06:07:43;100968.78;;;5.19;100.00
15634;BME280;14654;48.898;8.308;2024-02-21T06:10:08;100971.25;;;5.16;100.00
15634;BME280;14654;48.898;8.308;2024-02-21T06:12:34;100973.81;;;5.16;100.00
15634;BME280;14654;48.898;8.308;2024-02-21T06:14:59;100975.53;;;5.14;100.00
15634;BME280;14654;48.898;8.308;2024-02-21T06:17:24;100965.25;;;5.14;100.00
15634;BME280;14654;48.898;8.308;2024-02-21T06:19:50;100955.00;;;5.14;100.00
15634;BME280;14654;48.898;8.308;2024-02-21T06:22:15;100952.38;;;5.12;100.00
15634;BME280;14654;48.898;8.308;2024-02-21T06:24:40;100945.56;;;5.13;100.00
15634;BME280;14654;48.898;8.308;2024-02-21T06:27:06;100947.28;;;5.14;100.00
15634;BME280;14654;48.898;8.308;2024-02-21T06:29:32;100948.16;;;5.16;100.00
15634;BME280;14654;48.898;8.308;2024-02-21T06:31:57;100953.34;;;5.17;100.00
15634;BME280;14654;48.898;8.308;2024-02-21T06:34:23;100945.66;;;5.17;100.00
15634;BME280;14654;48.898;8.308;2024-02-21T06:36:49;100941.44;;;5.19;100.00
15634;BME280;14654;48.898;8.308;2024-02-21T06:39:14;100940.63;;;5.22;100.00
15634;BME280;14654;48.898;8.308;2024-02-21T06:41:40;100936.44;;;5.26;100.00
15634;BME280;14654;48.898;8.308;2024-02-21T06:44:05;100937.38;;;5.29;100.00
15634;BME280;14654;48.898;8.308;2024-02-21T06:46:31;100931.47;;;5.33;100.00
15634;BME280;14654;48.898;8.308;2024-02-21T06:48:59;100923.03;;;5.38;100.00
15634;BME280;14654;48.898;8.308;2024-02-21T06:51:30;100930.00;;;5.43;100.00
15634;BME280;14654;48.898;8.308;2024-02-21T06:53:56;100925.84;;;5.48;100.00
15634;BME280;14654;48.898;8.308;2024-02-21T06:56:24;100911.44;;;5.57;100.00
15634;BME280;14654;48.898;8.308;2024-02-21T06:58:56;100909.84;;;5.62;100.00
15634;BME280;14654;48.898;8.308;2024-02-21T07:01:22;100909.94;;;5.67;100.00
15634;BME280;14654;48.898;8.308;2024-02-21T07:03:48;100915.25;;;5.74;100.00
15634;BME280;14654;48.898;8.308;2024-02-21T07:06:13;100915.38;;;5.80;100.00
15634;BME280;14654;48.898;8.308;2024-02-21T07:08:38;100924.94;;;5.88;100.00
15634;BME280;14654;48.898;8.308;2024-02-21T07:11:04;100927.72;;;5.97;100.00
15634;BME280;14654;48.898;8.308;2024-02-21T07:13:30;100932.19;;;6.06;100.00
15634;BME280;14654;48.898;8.308;2024-02-21T07:15:55;100923.78;;;6.15;100.00
15634;BME280;14654;48.898;8.308;2024-02-21T07:18:20;100923.09;;;6.23;100.00
15634;BME280;14654;48.898;8.308;2024-02-21T07:20:46;100919.00;;;6.33;100.00
15634;BME280;14654;48.898;8.308;2024-02-21T07:23:11;100920.03;;;6.43;100.00
15634;BME280;14654;48.898;8.308;2024-02-21T07:25:36;100918.44;;;6.48;100.00
15634;BME280;14654;48.898;8.308;2024-02-21T07:28:02;100915.94;;;6.53;100.00
15634;BME280;14654;48.898;8.308;2024-02-21T07:30:28;100915.19;;;6.59;100.00
15634;BME280;14654;48.898;8.308;2024-02-21T07:32:53;100915.31;;;6.66;100.00
15634;BME280;14654;48.898;8.308;2024-02-21T07:35:18;100911.13;;;6.71;100.00
15634;BME280;14654;48.898;8.308;2024-02-21T07:37:44;100911.19;;;6.78;100.00
15634;BME280;14654;48.898;8.308;2024-02-21T07:40:13;100913.91;;;6.85;100.00
15634;BME280;14654;48.898;8.308;2024-02-21T07:42:39;100912.28;;;6.92;100.00
15634;BME280;14654;48.898;8.308;2024-02-21T07:45:04;100925.31;;;7.01;100.00
15634;BME280;14654;48.898;8.308;2024-02-21T07:47:30;100915.94;;;7.07;100.00
15634;BME280;14654;48.898;8.308;2024-02-21T07:49:55;100914.31;;;7.12;100.00
15634;BME280;14654;48.898;8.308;2024-02-21T07:52:20;100918.69;;;7.16;100.00
15634;BME280;14654;48.898;8.308;2024-02-21T07:54:46;100918.75;;;7.22;100.00
15634;BME280;14654;48.898;8.308;2024-02-21T07:57:11;100912.94;;;7.32;100.00
15634;BME280;14654;48.898;8.308;2024-02-21T07:59:36;100913.06;;;7.43;100.00
15634;BME280;14654;48.898;8.308;2024-02-21T08:02:01;100912.34;;;7.54;100.00
15634;BME280;14654;48.898;8.308;2024-02-21T08:04:27;100900.47;;;7.65;100.00
15634;BME280;14654;48.898;8.308;2024-02-21T08:06:53;100897.16;;;7.75;100.00
15634;BME280;14654;48.898;8.308;2024-02-21T08:09:20;100897.28;;;7.85;100.00
15634;BME280;14654;48.898;8.308;2024-02-21T08:11:46;100893.97;;;7.93;100.00
15634;BME280;14654;48.898;8.308;2024-02-21T08:14:11;100890.59;;;7.99;100.00
15634;BME280;14654;48.898;8.308;2024-02-21T08:16:36;100887.22;;;8.05;100.00
15634;BME280;14654;48.898;8.308;2024-02-21T08:19:02;100884.69;;;8.11;100.00
15634;BME280;14654;48.898;8.308;2024-02-21T08:21:29;100881.28;;;8.17;100.00
15634;BME280;14654;48.898;8.308;2024-02-21T08:23:54;100873.63;;;8.23;100.00
15634;BME280;14654;48.898;8.308;2024-02-21T08:26:20;100869.38;;;8.27;100.00
15634;BME280;14654;48.898;8.308;2024-02-21T08:28:45;100866.81;;;8.30;100.00
15634;BME280;14654;48.898;8.308;2024-02-21T08:31:10;100870.28;;;8.33;100.00
15634;BME280;14654;48.898;8.308;2024-02-21T08:33:36;100863.47;;;8.38;100.00
15634;BME280;14654;48.898;8.308;2024-02-21T08:36:01;100860.13;;;8.46;100.00
15634;BME280;14654;48.898;8.308;2024-02-21T08:38:26;100866.22;;;8.52;100.00
15634;BME280;14654;48.898;8.308;2024-02-21T08:40:52;100868.00;;;8.58;100.00
15634;BME280;14654;48.898;8.308;2024-02-21T08:43:17;100866.31;;;8.65;100.00
15634;BME280;14654;48.898;8.308;2024-02-21T08:45:42;100870.66;;;8.69;100.00
15634;BME280;14654;48.898;8.308;2024-02-21T08:48:07;100861.25;;;8.76;100.00
15634;BME280;14654;48.898;8.308;2024-02-21T08:50:33;100861.28;;;8.82;100.00
15634;BME280;14654;48.898;8.308;2024-02-21T08:52:58;100857.94;;;8.92;100.00
15634;BME280;14654;48.898;8.308;2024-02-21T08:55:24;100852.81;;;9.03;100.00
15634;BME280;14654;48.898;8.308;2024-02-21T08:57:49;100863.22;;;9.14;100.00
15634;BME280;14654;48.898;8.308;2024-02-21T09:00:15;100859.81;;;9.18;100.00
15634;BME280;14654;48.898;8.308;2024-02-21T09:02:41;100856.41;;;9.24;100.00
15634;BME280;14654;48.898;8.308;2024-02-21T09:05:10;100859.03;;;9.32;100.00
15634;BME280;14654;48.898;8.308;2024-02-21T09:07:35;100852.16;;;9.40;100.00
15634;BME280;14654;48.898;8.308;2024-02-21T09:10:00;100841.91;;;9.49;100.00
15634;BME280;14654;48.898;8.308;2024-02-21T09:12:26;100847.94;;;9.51;100.00
15634;BME280;14654;48.898;8.308;2024-02-21T09:14:51;100840.19;;;9.51;100.00
15634;BME280;14654;48.898;8.308;2024-02-21T09:17:17;100834.19;;;9.61;100.00
15634;BME280;14654;48.898;8.308;2024-02-21T09:19:42;100834.22;;;9.71;100.00
15634;BME280;14654;48.898;8.308;2024-02-21T09:22:08;100826.50;;;9.83;100.00
15634;BME280;14654;48.898;8.308;2024-02-21T09:24:33;100823.97;;;9.96;100.00
15634;BME280;14654;48.898;8.308;2024-02-21T09:26:58;100812.78;;;10.09;100.00
15634;BME280;14654;48.898;8.308;2024-02-21T09:29:25;100814.53;;;10.26;100.00
15634;BME280;14654;48.898;8.308;2024-02-21T09:31:50;100811.06;;;10.33;100.00
15634;BME280;14654;48.898;8.308;2024-02-21T09:34:15;100804.22;;;10.46;100.00
15634;BME280;14654;48.898;8.308;2024-02-21T09:36:41;100807.66;;;10.56;100.00
15634;BME280;14654;48.898;8.308;2024-02-21T09:39:06;100799.88;;;10.65;100.00
15634;BME280;14654;48.898;8.308;2024-02-21T09:41:33;100798.16;;;10.78;100.00
15634;BME280;14654;48.898;8.308;2024-02-21T09:44:01;100788.59;;;10.94;100.00
15634;BME280;14654;48.898;8.308;2024-02-21T09:47:03;100787.69;;;11.17;100.00
15634;BME280;14654;48.898;8.308;2024-02-21T09:49:35;100787.63;;;11.27;100.00
15634;BME280;14654;48.898;8.308;2024-02-21T09:52:06;100782.38;;;11.44;100.00
15634;BME280;14654;48.898;8.308;2024-02-21T09:54:33;100784.88;;;11.62;100.00
15634;BME280;14654;48.898;8.308;2024-02-21T09:57:02;100778.81;;;11.67;100.00
15634;BME280;14654;48.898;8.308;2024-02-21T09:59:30;100785.69;;;11.74;100.00
15634;BME280;14654;48.898;8.308;2024-02-21T10:01:56;100777.00;;;11.82;100.00
15634;BME280;14654;48.898;8.308;2024-02-21T10:04:21;100769.22;;;11.86;100.00
15634;BME280;14654;48.898;8.308;2024-02-21T10:06:47;100764.03;;;11.86;100.00
15634;BME280;14654;48.898;8.308;2024-02-21T10:09:28;100762.22;;;11.98;100.00
15634;BME280;14654;48.898;8.308;2024-02-21T10:11:54;100760.50;;;12.00;100.00
15634;BME280;14654;48.898;8.308;2024-02-21T10:14:20;100755.22;;;12.12;100.00
15634;BME280;14654;48.898;8.308;2024-02-21T10:16:56;100748.16;;;12.25;100.00
15634;BME280;14654;48.898;8.308;2024-02-21T10:19:22;100738.59;;;12.33;100.00
15634;BME280;14654;48.898;8.308;2024-02-21T10:24:34;100729.00;;;12.43;100.00
15634;BME280;14654;48.898;8.308;2024-02-21T10:27:05;100724.72;;;12.38;99.73
15634;BME280;14654;48.898;8.308;2024-02-21T10:29:33;100723.78;;;12.45;99.54
15634;BME280;14654;48.898;8.308;2024-02-21T10:32:12;100719.47;;;12.44;98.87
15634;BME280;14654;48.898;8.308;2024-02-21T10:34:39;100716.94;;;12.38;98.75
15634;BME280;14654;48.898;8.308;2024-02-21T10:37:09;100728.84;;;12.57;97.69
15634;BME280;14654;48.898;8.308;2024-02-21T10:39:38;100720.09;;;12.66;97.98
15634;BME280;14654;48.898;8.308;2024-02-21T10:42:04;100709.78;;;12.61;97.73
15634;BME280;14654;48.898;8.308;2024-02-21T10:44:31;100715.69;;;12.74;98.11
15634;BME280;14654;48.898;8.308;2024-02-21T10:46:57;100701.66;;;12.91;96.95
15634;BME280;14654;48.898;8.308;2024-02-21T10:49:23;100702.34;;;13.05;94.64
15634;BME280;14654;48.898;8.308;2024-02-21T10:54:39;100694.50;;;13.08;93.54
15634;BME280;14654;48.898;8.308;2024-02-21T10:57:06;100680.47;;;13.20;92.42
15634;BME280;14654;48.898;8.308;2024-02-21T10:59:32;100676.09;;;13.24;93.53
15634;BME280;14654;48.898;8.308;2024-02-21T11:01:59;100669.06;;;13.32;93.95
15634;BME280;14654;48.898;8.308;2024-02-21T11:04:25;100674.34;;;13.27;93.23
15634;BME280;14654;48.898;8.308;2024-02-21T11:06:51;100656.91;;;13.34;93.38
15634;BME280;14654;48.898;8.308;2024-02-21T11:09:17;100651.59;;;13.45;92.60
15634;BME280;14654;48.898;8.308;2024-02-21T11:11:45;100652.53;;;13.38;92.25
15634;BME280;14654;48.898;8.308;2024-02-21T11:14:17;100647.28;;;13.43;92.39
15634;BME280;14654;48.898;8.308;2024-02-21T11:16:43;100649.63;;;13.58;90.49
15634;BME280;14654;48.898;8.308;2024-02-21T11:21:36;100633.97;;;13.63;91.04
15634;BME280;14654;48.898;8.308;2024-02-21T11:24:05;100638.25;;;13.67;90.96
15634;BME280;14654;48.898;8.308;2024-02-21T11:26:31;100630.50;;;13.62;90.03
15634;BME280;14654;48.898;8.308;2024-02-21T11:28:58;100628.72;;;13.66;90.10
15634;BME280;14654;48.898;8.308;2024-02-21T11:31:25;100623.44;;;13.72;89.96
15634;BME280;14654;48.898;8.308;2024-02-21T11:33:52;100609.41;;;13.79;89.99
15634;BME280;14654;48.898;8.308;2024-02-21T11:36:27;100608.31;;;13.93;89.46
15634;BME280;14654;48.898;8.308;2024-02-21T11:38:53;100601.25;;;13.99;88.70
15634;BME280;14654;48.898;8.308;2024-02-21T11:41:19;100596.81;;;14.06;88.56
15634;BME280;14654;48.898;8.308;2024-02-21T11:43:46;100596.00;;;14.02;88.12
15634;BME280;14654;48.898;8.308;2024-02-21T11:46:13;100588.25;;;13.99;88.30
15634;BME280;14654;48.898;8.308;2024-02-21T11:48:40;100582.94;;;14.06;88.60
15634;BME280;14654;48.898;8.308;2024-02-21T11:51:06;100571.59;;;14.08;87.13
15634;BME280;14654;48.898;8.308;2024-02-21T11:53:31;100565.66;;;14.01;86.75
15634;BME280;14654;48.898;8.308;2024-02-21T11:55:58;100558.59;;;14.08;87.06
15634;BME280;14654;48.898;8.308;2024-02-21T11:58:24;100552.44;;;14.12;86.88
15634;BME280;14654;48.898;8.308;2024-02-21T12:00:49;100553.25;;;14.16;86.28
15634;BME280;14654;48.898;8.308;2024-02-21T12:03:15;100548.88;;;14.18;86.76
15634;BME280;14654;48.898;8.308;2024-02-21T12:05:41;100545.28;;;14.24;87.54
15634;BME280;14654;48.898;8.308;2024-02-21T12:08:06;100535.59;;;14.30;87.09
15634;BME280;14654;48.898;8.308;2024-02-21T12:10:32;100529.44;;;14.35;86.90
15634;BME280;14654;48.898;8.308;2024-02-21T12:13:06;100533.00;;;14.30;86.50
15634;BME280;14654;48.898;8.308;2024-02-21T12:15:32;100521.63;;;14.35;87.07
15634;BME280;14654;48.898;8.308;2024-02-21T12:17:57;100524.22;;;14.36;86.94
15634;BME280;14654;48.898;8.308;2024-02-21T12:20:22;100518.03;;;14.40;86.35
15634;BME280;14654;48.898;8.308;2024-02-21T12:22:49;100505.03;;;14.40;86.82
15634;BME280;14654;48.898;8.308;2024-02-21T12:25:19;100505.03;;;14.40;87.08
15634;BME280;14654;48.898;8.308;2024-02-21T12:27:45;100501.44;;;14.46;85.78
15634;BME280;14654;48.898;8.308;2024-02-21T12:30:11;100493.75;;;14.40;85.25
15634;BME280;14654;48.898;8.308;2024-02-21T12:32:37;100496.16;;;14.49;85.12
15634;BME280;14654;48.898;8.308;2024-02-21T12:35:02;100493.59;;;14.47;84.90
15634;BME280;14654;48.898;8.308;2024-02-21T12:37:29;100484.91;;;14.48;85.26
15634;BME280;14654;48.898;8.308;2024-02-21T12:39:54;100481.31;;;14.53;85.79
15634;BME280;14654;48.898;8.308;2024-02-21T12:42:20;100482.13;;;14.56;86.01
15634;BME280;14654;48.898;8.308;2024-02-21T12:44:45;100475.91;;;14.62;86.00
15634;BME280;14654;48.898;8.308;2024-02-21T12:47:11;100471.59;;;14.61;85.91
15634;BME280;14654;48.898;8.308;2024-02-21T12:49:37;100462.03;;;14.61;86.03
15634;BME280;14654;48.898;8.308;2024-02-21T12:52:02;100452.44;;;14.63;85.59